createdAt,value
2023-03-25T00:00:00.413Z,7.74
2023-03-25T00:10:02.756Z,7.69
2023-03-25T00:20:10.239Z,7.61
2023-03-25T00:30:13.502Z,7.62
2023-03-25T00:40:15.747Z,7.55
2023-03-25T00:50:18.280Z,7.77
2023-03-25T01:00:20.732Z,7.88
2023-03-25T01:10:23.552Z,8.22
2023-03-25T01:20:27.158Z,7.94
2023-03-25T01:30:29.937Z,7.70
2023-03-25T01:40:32.208Z,7.81
2023-03-25T01:50:36.515Z,7.77
2023-03-25T02:00:41.483Z,7.76
2023-03-25T02:10:46.303Z,8.18
2023-03-25T02:21:23.642Z,7.43
2023-03-25T02:31:48.620Z,6.09
2023-03-25T02:41:58.690Z,5.82
2023-03-25T02:52:20.056Z,5.51
2023-03-25T03:02:26.290Z,5.22
2023-03-25T03:12:47.109Z,5.16
2023-03-25T03:23:06.367Z,5.01
2023-03-25T03:33:28.663Z,4.90
2023-03-25T03:43:39.699Z,4.77
2023-03-25T03:53:58.712Z,4.55
2023-03-25T04:04:06.563Z,4.44
2023-03-25T04:14:10.793Z,4.73
2023-03-25T04:24:17.088Z,4.99
2023-03-25T04:34:21.292Z,5.11
2023-03-25T04:44:26.200Z,5.00
2023-03-25T04:54:28.596Z,4.91
2023-03-25T05:04:31.172Z,5.05
2023-03-25T05:14:33.569Z,4.95
2023-03-25T05:24:37.454Z,4.70
2023-03-25T05:34:40.345Z,4.58
2023-03-25T05:44:51.185Z,4.47
2023-03-25T05:54:53.805Z,4.48
2023-03-25T06:04:56.080Z,4.43
2023-03-25T06:14:58.917Z,4.40
2023-03-25T06:25:03.802Z,4.57
2023-03-25T06:35:07.611Z,5.04
2023-03-25T06:45:11.176Z,5.54
2023-03-25T06:55:13.787Z,6.02
2023-03-25T07:05:16.371Z,6.43
2023-03-25T07:15:19.013Z,6.62
2023-03-25T07:25:22.489Z,6.79
2023-03-25T07:35:25.170Z,6.82
2023-03-25T07:45:27.693Z,6.80
2023-03-25T07:55:30.191Z,6.69
2023-03-25T08:05:32.871Z,6.81
2023-03-25T08:15:35.953Z,6.91
2023-03-25T08:25:40.515Z,7.39
2023-03-25T08:35:43.496Z,7.86
2023-03-25T08:45:46.159Z,7.97
2023-03-25T08:55:53.476Z,8.12
2023-03-25T09:05:57.155Z,8.24
2023-03-25T09:16:00.134Z,8.52
2023-03-25T09:26:05.570Z,8.66
2023-03-25T09:36:08.720Z,8.80
2023-03-25T09:46:11.627Z,9.37
2023-03-25T09:56:23.566Z,8.70
2023-03-25T10:06:27.614Z,8.18
2023-03-25T10:16:56.368Z,9.13
2023-03-25T10:27:34.608Z,9.37
2023-03-25T10:37:42.900Z,9.00
2023-03-25T10:47:48.021Z,9.79
2023-03-25T10:57:52.309Z,10.46
2023-03-25T11:08:09.025Z,11.64
2023-03-25T11:18:35.207Z,12.15
2023-03-25T11:28:42.371Z,12.35
2023-03-25T11:38:51.751Z,12.54
2023-03-25T11:48:54.237Z,12.66
2023-03-25T11:59:00.894Z,13.25
2023-03-25T12:09:12.199Z,13.93
2023-03-25T12:19:19.009Z,14.24
2023-03-25T12:30:00.919Z,14.72
2023-03-25T12:40:32.505Z,14.99
2023-03-25T12:51:07.187Z,15.62
2023-03-25T13:01:31.673Z,15.77
2023-03-25T13:11:41.424Z,16.42
2023-03-25T13:21:51.846Z,16.62
2023-03-25T13:31:57.150Z,16.53
2023-03-25T13:42:08.175Z,16.07
2023-03-25T13:52:11.390Z,16.55
2023-03-25T14:02:47.996Z,16.54
2023-03-25T14:13:21.048Z,15.83
2023-03-25T14:23:25.926Z,15.15
2023-03-25T14:33:28.948Z,14.03
2023-03-25T14:43:36.956Z,13.43
2023-03-25T14:53:41.483Z,13.64
2023-03-25T15:03:46.546Z,13.78
2023-03-25T15:13:53.675Z,13.67
2023-03-25T15:24:08.004Z,14.00
2023-03-25T15:34:20.393Z,14.06
2023-03-25T15:44:41.203Z,14.69
2023-03-25T15:54:52.336Z,14.32
2023-03-25T16:04:56.299Z,13.71
2023-03-25T16:14:59.707Z,14.15
2023-03-25T16:25:14.787Z,13.98
2023-03-25T16:35:25.859Z,14.65
2023-03-25T16:45:29.088Z,14.08
2023-03-25T16:56:05.283Z,13.63
2023-03-25T17:06:30.903Z,13.54
2023-03-25T17:16:34.833Z,13.22
2023-03-25T17:27:17.739Z,12.81
2023-03-25T17:37:26.886Z,12.35
2023-03-25T17:47:29.638Z,11.97
2023-03-25T17:57:32.382Z,11.41
2023-03-25T18:07:35.259Z,10.63
2023-03-25T18:17:38.715Z,10.13
2023-03-25T18:27:44.128Z,9.81
2023-03-25T18:37:48.930Z,9.49
2023-03-25T18:47:52.429Z,9.21
2023-03-25T18:57:55.977Z,8.85
2023-03-25T19:07:58.823Z,8.60
2023-03-25T19:18:04.327Z,8.55
2023-03-25T19:28:07.126Z,8.47
2023-03-25T19:38:10.129Z,8.70
2023-03-25T19:48:12.769Z,8.97
2023-03-25T19:58:16.305Z,9.31
2023-03-25T20:08:19.818Z,9.45
2023-03-25T20:18:22.212Z,9.41
2023-03-25T20:28:25.777Z,9.42
2023-03-25T20:38:28.566Z,9.43
2023-03-25T20:48:31.227Z,9.35
2023-03-25T20:58:34.159Z,9.27
2023-03-25T21:08:37.400Z,9.15
2023-03-25T21:18:40.263Z,9.02
2023-03-25T21:28:43.071Z,8.76
2023-03-25T21:38:46.282Z,8.46
2023-03-25T21:48:49.123Z,8.17
2023-03-25T21:58:52.997Z,8.00
2023-03-25T22:08:59.396Z,7.87
2023-03-25T22:19:02.395Z,7.64
2023-03-25T22:29:07.114Z,7.47
2023-03-25T22:39:10.695Z,7.36
2023-03-25T22:49:14.025Z,7.26
2023-03-25T22:59:17.040Z,7.38
2023-03-25T23:09:39.556Z,7.50
2023-03-25T23:19:42.305Z,7.71
2023-03-25T23:29:45.301Z,7.80
2023-03-25T23:39:47.962Z,7.82
2023-03-25T23:49:50.360Z,7.76
2023-03-25T23:59:52.979Z,7.72
